createdAt,value
2022-10-03T00:00:54.370Z,5.30
2022-10-03T00:01:54.436Z,6.50
2022-10-03T00:02:54.555Z,6.40
2022-10-03T00:03:56.946Z,5.10
2022-10-03T00:04:56.988Z,6.10
2022-10-03T00:05:54.316Z,7.20
2022-10-03T00:06:54.483Z,4.20
2022-10-03T00:07:54.292Z,4.90
2022-10-03T00:08:54.289Z,5.70
2022-10-03T00:09:54.264Z,5.90
2022-10-03T00:10:54.262Z,4.70
2022-10-03T00:11:54.478Z,7.80
2022-10-03T00:12:54.253Z,6.10
2022-10-03T00:13:54.222Z,4.90
2022-10-03T00:14:55.973Z,5.60
2022-10-03T00:15:54.251Z,7.30
2022-10-03T00:16:54.477Z,6.80
2022-10-03T00:17:54.203Z,6.30
2022-10-03T00:18:54.514Z,4.90
2022-10-03T00:20:00.950Z,5.90
2022-10-03T00:20:54.952Z,7.00
2022-10-03T00:21:54.148Z,5.70
2022-10-03T00:22:54.132Z,7.50
2022-10-03T00:23:54.145Z,7.70
2022-10-03T00:24:54.111Z,8.30
2022-10-03T00:25:54.961Z,8.80
2022-10-03T00:26:54.084Z,6.30
2022-10-03T00:27:55.205Z,6.10
2022-10-03T00:28:54.069Z,7.60
2022-10-03T00:29:54.071Z,7.30
2022-10-03T00:30:54.066Z,5.00
2022-10-03T00:31:54.056Z,5.70
2022-10-03T00:32:54.023Z,5.40
2022-10-03T00:33:54.014Z,4.80
2022-10-03T00:34:54.031Z,7.10
2022-10-03T00:35:55.042Z,6.20
2022-10-03T00:36:53.973Z,7.00
2022-10-03T00:37:53.959Z,5.60
2022-10-03T00:38:53.971Z,6.20
2022-10-03T00:39:53.984Z,6.40
2022-10-03T00:40:54.444Z,5.50
2022-10-03T00:41:53.929Z,6.40
2022-10-03T00:42:53.912Z,6.40
2022-10-03T00:43:53.905Z,6.80
2022-10-03T00:44:53.908Z,6.50
2022-10-03T00:45:53.875Z,9.30
2022-10-03T00:46:54.051Z,8.40
2022-10-03T00:47:54.913Z,6.80
2022-10-03T00:48:56.444Z,6.30
2022-10-03T00:49:53.834Z,6.10
2022-10-03T00:50:53.838Z,8.30
2022-10-03T00:51:53.833Z,4.40
2022-10-03T00:52:53.796Z,5.90
2022-10-03T00:53:53.785Z,8.00
2022-10-03T00:54:53.789Z,6.50
2022-10-03T00:55:53.799Z,5.80
2022-10-03T00:56:53.755Z,7.10
2022-10-03T00:57:56.448Z,6.40
2022-10-03T00:58:53.732Z,5.90
2022-10-03T00:59:53.733Z,6.50
2022-10-03T01:00:53.757Z,5.50
2022-10-03T01:01:54.037Z,5.70
2022-10-03T01:02:53.722Z,6.40
2022-10-03T01:03:53.694Z,8.20
2022-10-03T01:04:53.665Z,6.80
2022-10-03T01:05:53.658Z,6.70
2022-10-03T01:06:53.675Z,8.30
2022-10-03T01:07:53.641Z,5.10
2022-10-03T01:08:53.643Z,6.00
2022-10-03T01:09:53.612Z,5.30
2022-10-03T01:10:53.611Z,5.80
2022-10-03T01:11:53.615Z,5.90
2022-10-03T01:12:53.586Z,8.30
2022-10-03T01:13:55.487Z,6.30
2022-10-03T01:14:55.496Z,6.70
2022-10-03T01:15:54.549Z,6.20
2022-10-03T01:16:54.580Z,5.90
2022-10-03T01:17:54.447Z,6.20
2022-10-03T01:18:53.540Z,5.90
2022-10-03T01:19:53.526Z,8.70
2022-10-03T01:20:53.492Z,7.00
2022-10-03T01:21:54.459Z,7.10
2022-10-03T01:22:53.489Z,5.80
2022-10-03T01:23:53.467Z,6.60
2022-10-03T01:24:55.947Z,7.70
2022-10-03T01:25:53.483Z,5.20
2022-10-03T01:26:53.953Z,5.60
2022-10-03T01:27:53.452Z,6.90
2022-10-03T01:28:53.404Z,6.00
2022-10-03T01:29:53.963Z,6.50
2022-10-03T01:30:56.041Z,5.30
2022-10-03T01:31:54.100Z,5.70
2022-10-03T01:32:55.954Z,5.40
2022-10-03T01:33:53.945Z,6.50
2022-10-03T01:34:53.962Z,5.80
2022-10-03T01:35:53.967Z,5.60
2022-10-03T01:37:07.490Z,5.10
2022-10-03T01:37:53.955Z,6.20
2022-10-03T01:38:59.970Z,5.60
2022-10-03T01:39:53.951Z,6.40
2022-10-03T01:41:08.986Z,6.10
2022-10-03T01:41:55.949Z,5.10
2022-10-03T01:42:54.993Z,7.70
2022-10-03T01:43:53.980Z,7.50
2022-10-03T01:45:07.967Z,7.10
2022-10-03T01:46:14.268Z,6.40
2022-10-03T01:46:56.041Z,5.90
2022-10-03T01:47:55.081Z,6.40
2022-10-03T01:49:00.963Z,6.00
2022-10-03T01:49:59.952Z,6.30
2022-10-03T01:50:55.961Z,6.90
2022-10-03T01:51:55.998Z,8.00
2022-10-03T01:52:55.969Z,6.20
2022-10-03T01:53:56.171Z,5.30
2022-10-03T01:54:55.221Z,6.70
2022-10-03T01:55:53.115Z,5.10
2022-10-03T01:56:59.952Z,5.70
2022-10-03T01:57:55.962Z,4.60
2022-10-03T01:58:55.962Z,7.80
2022-10-03T01:59:56.482Z,5.80
2022-10-03T02:01:00.027Z,4.50
2022-10-03T02:01:53.069Z,6.60
2022-10-03T02:02:53.035Z,6.80
2022-10-03T02:03:53.035Z,6.70
2022-10-03T02:04:53.033Z,5.00
2022-10-03T02:05:53.008Z,7.80
2022-10-03T02:07:14.951Z,7.40
2022-10-03T02:07:55.952Z,6.80
2022-10-03T02:08:59.948Z,9.20
2022-10-03T02:09:52.966Z,7.80
2022-10-03T02:10:52.981Z,5.80
2022-10-03T02:11:52.934Z,8.20
2022-10-03T02:12:52.923Z,5.50
2022-10-03T02:13:52.918Z,7.70
2022-10-03T02:14:52.899Z,6.80
2022-10-03T02:15:52.967Z,6.00
2022-10-03T02:16:52.871Z,7.20
2022-10-03T02:17:52.869Z,6.90
2022-10-03T02:18:52.863Z,7.00
2022-10-03T02:19:53.451Z,5.90
2022-10-03T02:20:52.987Z,7.10
2022-10-03T02:21:52.822Z,5.80
2022-10-03T02:22:52.819Z,6.20
2022-10-03T02:23:52.830Z,7.20
2022-10-03T02:24:52.803Z,8.20
2022-10-03T02:25:52.814Z,5.40
2022-10-03T02:26:54.535Z,7.00
2022-10-03T02:27:52.860Z,7.80
2022-10-03T02:28:52.752Z,5.70
2022-10-03T02:29:53.458Z,5.20
2022-10-03T02:30:52.725Z,7.20
2022-10-03T02:32:07.455Z,8.50
2022-10-03T02:32:59.457Z,6.00
2022-10-03T02:33:52.712Z,6.10
2022-10-03T02:34:53.453Z,5.70
2022-10-03T02:36:13.693Z,5.00
2022-10-03T02:36:53.448Z,6.00
2022-10-03T02:37:52.671Z,6.00
2022-10-03T02:38:52.663Z,6.30
2022-10-03T02:39:53.453Z,6.20
2022-10-03T02:40:52.625Z,6.40
2022-10-03T02:41:52.604Z,5.00
2022-10-03T02:42:53.471Z,6.00
2022-10-03T02:43:53.454Z,5.40
2022-10-03T02:44:53.486Z,7.00
2022-10-03T02:45:53.620Z,6.00
2022-10-03T02:46:52.995Z,7.80
2022-10-03T02:47:56.834Z,7.50
2022-10-03T02:48:53.560Z,6.60
2022-10-03T02:49:52.535Z,6.50
2022-10-03T02:50:52.507Z,6.20
2022-10-03T02:51:53.508Z,6.80
2022-10-03T02:52:52.487Z,7.50
2022-10-03T02:53:52.483Z,6.80
2022-10-03T02:54:52.472Z,7.00
2022-10-03T02:55:52.476Z,5.50
2022-10-03T02:56:52.488Z,5.00
2022-10-03T02:57:52.438Z,7.70
2022-10-03T02:58:52.441Z,7.70
2022-10-03T02:59:52.415Z,7.60
2022-10-03T03:00:53.452Z,7.30
2022-10-03T03:01:52.431Z,7.40
2022-10-03T03:02:53.984Z,7.30
2022-10-03T03:03:52.362Z,5.70
2022-10-03T03:04:58.960Z,8.20
2022-10-03T03:05:52.953Z,5.20
2022-10-03T03:06:52.348Z,6.90
2022-10-03T03:07:52.326Z,6.40
2022-10-03T03:08:52.313Z,13.40
2022-10-03T03:09:52.348Z,6.50
2022-10-03T03:10:52.303Z,8.20
2022-10-03T03:11:52.275Z,5.80
2022-10-03T03:12:52.283Z,5.90
2022-10-03T03:13:52.271Z,6.70
2022-10-03T03:14:52.259Z,6.20
2022-10-03T03:15:52.957Z,5.60
2022-10-03T03:16:52.218Z,6.90
2022-10-03T03:17:52.216Z,6.60
2022-10-03T03:18:52.222Z,4.90
2022-10-03T03:19:52.188Z,7.90
2022-10-03T03:20:52.195Z,5.70
2022-10-03T03:21:52.172Z,7.30
2022-10-03T03:22:52.157Z,7.80
2022-10-03T03:23:52.202Z,7.50
2022-10-03T03:24:52.139Z,9.30
2022-10-03T03:25:52.131Z,4.90
2022-10-03T03:26:52.134Z,7.60
2022-10-03T03:27:52.124Z,6.70
2022-10-03T03:28:55.553Z,6.40
2022-10-03T03:29:53.127Z,5.90
2022-10-03T03:30:52.088Z,6.40
2022-10-03T03:31:52.137Z,5.30
2022-10-03T03:33:06.969Z,5.60
2022-10-03T03:33:52.953Z,6.00
2022-10-03T03:34:52.027Z,6.50
2022-10-03T03:36:13.016Z,6.30
2022-10-03T03:36:53.078Z,7.80
2022-10-03T03:37:54.961Z,7.10
2022-10-03T03:38:52.966Z,6.30
2022-10-03T03:39:51.998Z,5.00
2022-10-03T03:40:51.969Z,7.00
2022-10-03T03:41:51.968Z,6.20
2022-10-03T03:42:51.957Z,6.80
2022-10-03T03:43:51.941Z,6.80
2022-10-03T03:44:51.920Z,7.90
2022-10-03T03:45:52.007Z,5.70
2022-10-03T03:47:06.479Z,7.20
2022-10-03T03:47:51.902Z,7.50
2022-10-03T03:48:51.871Z,7.60
2022-10-03T03:49:51.998Z,7.80
2022-10-03T03:50:53.474Z,9.90
2022-10-03T03:51:51.837Z,5.70
2022-10-03T03:52:51.876Z,5.80
2022-10-03T03:53:51.837Z,8.40
2022-10-03T03:54:51.813Z,9.50
2022-10-03T03:55:52.461Z,4.40
2022-10-03T03:56:52.002Z,6.40
2022-10-03T03:57:51.986Z,7.70
2022-10-03T03:59:12.768Z,6.20
2022-10-03T03:59:52.459Z,6.70
2022-10-03T04:00:51.805Z,7.50
2022-10-03T04:01:52.027Z,6.40
2022-10-03T04:02:51.749Z,5.70
2022-10-03T04:03:52.457Z,6.80
2022-10-03T04:04:51.704Z,7.80
2022-10-03T04:05:51.699Z,5.80
2022-10-03T04:06:54.958Z,5.50
2022-10-03T04:07:51.658Z,5.80
2022-10-03T04:08:52.706Z,5.50
2022-10-03T04:09:52.460Z,8.20
2022-10-03T04:10:51.672Z,8.90
2022-10-03T04:11:51.620Z,6.60
2022-10-03T04:12:51.627Z,6.90
2022-10-03T04:13:52.459Z,5.60
2022-10-03T04:14:52.466Z,6.10
2022-10-03T04:15:51.584Z,11.10
2022-10-03T04:16:52.604Z,5.60
2022-10-03T04:17:52.457Z,5.00
2022-10-03T04:18:51.596Z,6.90
2022-10-03T04:19:51.532Z,8.80
2022-10-03T04:20:51.538Z,5.00
2022-10-03T04:21:51.546Z,8.30
2022-10-03T04:22:51.520Z,6.30
2022-10-03T04:23:52.464Z,6.80
2022-10-03T04:24:51.482Z,5.70
2022-10-03T04:25:51.470Z,6.40
2022-10-03T04:26:51.473Z,8.20
2022-10-03T04:27:52.547Z,7.50
2022-10-03T04:28:51.432Z,6.80
2022-10-03T04:29:56.623Z,8.00
2022-10-03T04:30:51.418Z,5.90
2022-10-03T04:31:51.490Z,6.80
2022-10-03T04:32:51.401Z,5.40
2022-10-03T04:33:51.487Z,7.80
2022-10-03T04:34:53.982Z,5.90
2022-10-03T04:35:51.357Z,7.40
2022-10-03T04:36:51.358Z,6.10
2022-10-03T04:37:51.989Z,6.80
2022-10-03T04:38:51.331Z,6.00
2022-10-03T04:39:51.487Z,7.90
2022-10-03T04:40:51.965Z,7.80
2022-10-03T04:41:57.974Z,5.70
2022-10-03T04:42:51.288Z,4.80
2022-10-03T04:43:51.501Z,8.00
2022-10-03T04:44:51.265Z,6.50
2022-10-03T04:45:51.968Z,6.20
2022-10-03T04:46:51.963Z,8.70
2022-10-03T04:47:51.531Z,8.90
2022-10-03T04:48:53.961Z,7.50
2022-10-03T04:49:51.961Z,7.90
2022-10-03T04:50:51.242Z,9.60
2022-10-03T04:51:55.340Z,5.30
2022-10-03T04:52:51.956Z,8.40
2022-10-03T04:53:53.968Z,9.10
2022-10-03T04:54:51.959Z,7.70
2022-10-03T04:55:53.966Z,9.60
2022-10-03T04:56:51.150Z,7.10
2022-10-03T04:57:53.959Z,8.30
2022-10-03T04:58:51.114Z,6.30
2022-10-03T04:59:51.101Z,6.70
2022-10-03T05:00:51.133Z,8.00
2022-10-03T05:01:53.092Z,7.90
2022-10-03T05:02:51.082Z,6.80
2022-10-03T05:03:51.964Z,8.70
2022-10-03T05:04:55.502Z,8.40
2022-10-03T05:05:51.966Z,8.10
2022-10-03T05:06:51.032Z,8.20
2022-10-03T05:07:51.101Z,6.10
2022-10-03T05:08:51.960Z,8.30
2022-10-03T05:09:53.025Z,7.80
2022-10-03T05:10:50.980Z,9.50
2022-10-03T05:11:51.974Z,8.00
2022-10-03T05:12:50.953Z,9.60
2022-10-03T05:13:50.947Z,8.90
2022-10-03T05:14:50.931Z,8.70
2022-10-03T05:15:52.985Z,8.10
2022-10-03T05:16:51.015Z,8.00
2022-10-03T05:17:53.469Z,8.00
2022-10-03T05:18:50.894Z,8.00
2022-10-03T05:19:50.896Z,10.20
2022-10-03T05:20:50.890Z,9.50
2022-10-03T05:21:50.863Z,8.70
2022-10-03T05:22:50.934Z,6.80
2022-10-03T05:23:54.475Z,9.60
2022-10-03T05:24:50.824Z,8.60
2022-10-03T05:25:50.834Z,11.60
2022-10-03T05:26:53.459Z,7.50
2022-10-03T05:27:51.520Z,9.30
2022-10-03T05:28:50.778Z,8.90
2022-10-03T05:29:50.779Z,9.30
2022-10-03T05:30:50.784Z,8.30
2022-10-03T05:31:50.913Z,9.40
2022-10-03T05:32:50.991Z,8.50
2022-10-03T05:33:50.989Z,9.60
2022-10-03T05:34:50.715Z,8.20
2022-10-03T05:35:50.710Z,10.70
2022-10-03T05:36:50.723Z,8.40
2022-10-03T05:37:50.692Z,10.00
2022-10-03T05:38:50.691Z,6.90
2022-10-03T05:39:50.679Z,8.90
2022-10-03T05:40:53.466Z,10.30
2022-10-03T05:42:10.947Z,10.30
2022-10-03T05:42:53.488Z,7.80
2022-10-03T05:43:50.633Z,8.60
2022-10-03T05:44:50.630Z,7.70
2022-10-03T05:45:50.653Z,9.50
2022-10-03T05:46:50.588Z,9.10
2022-10-03T05:47:50.578Z,7.00
2022-10-03T05:48:50.573Z,8.60
2022-10-03T05:49:51.464Z,9.60
2022-10-03T05:50:51.463Z,9.10
2022-10-03T05:51:51.464Z,8.30
2022-10-03T05:52:57.466Z,8.90
2022-10-03T05:53:50.532Z,7.40
2022-10-03T05:54:50.526Z,8.10
2022-10-03T05:55:51.458Z,8.00
2022-10-03T05:56:50.476Z,9.10
2022-10-03T05:57:51.490Z,9.70
2022-10-03T05:58:50.473Z,10.20
2022-10-03T05:59:50.446Z,11.50
2022-10-03T06:00:50.429Z,9.30
2022-10-03T06:01:50.453Z,8.70
2022-10-03T06:02:51.115Z,6.30
2022-10-03T06:03:50.988Z,9.80
2022-10-03T06:04:50.494Z,7.80
2022-10-03T06:05:56.963Z,8.30
2022-10-03T06:06:50.400Z,8.40
2022-10-03T06:07:50.965Z,9.60
2022-10-03T06:08:50.967Z,8.20
2022-10-03T06:09:50.965Z,9.30
2022-10-03T06:10:52.989Z,7.90
2022-10-03T06:11:50.309Z,9.80
2022-10-03T06:12:50.492Z,8.50
2022-10-03T06:13:53.022Z,7.30
2022-10-03T06:14:50.291Z,8.30
2022-10-03T06:15:53.047Z,8.90
2022-10-03T06:16:50.499Z,10.50
2022-10-03T06:17:50.249Z,8.80
2022-10-03T06:18:50.233Z,8.50
2022-10-03T06:19:50.967Z,8.90
2022-10-03T06:20:50.959Z,9.30
2022-10-03T06:21:52.964Z,9.10
2022-10-03T06:22:50.534Z,7.40
2022-10-03T06:23:50.184Z,10.90
2022-10-03T06:24:52.967Z,7.00
2022-10-03T06:26:11.979Z,9.10
2022-10-03T06:26:50.491Z,6.90
2022-10-03T06:27:51.527Z,7.50
2022-10-03T06:28:50.163Z,7.90
2022-10-03T06:29:50.117Z,8.00
2022-10-03T06:30:50.175Z,8.10
2022-10-03T06:31:50.099Z,10.00
2022-10-03T06:32:50.500Z,9.00
2022-10-03T06:33:50.076Z,9.20
2022-10-03T06:34:52.962Z,7.80
2022-10-03T06:35:50.985Z,8.50
2022-10-03T06:36:50.043Z,9.30
2022-10-03T06:37:50.025Z,8.80
2022-10-03T06:38:50.966Z,9.00
2022-10-03T06:39:50.014Z,8.00
2022-10-03T06:40:49.994Z,10.80
2022-10-03T06:41:51.014Z,9.10
2022-10-03T06:42:50.034Z,9.10
2022-10-03T06:43:49.989Z,8.30
2022-10-03T06:44:50.051Z,10.70
2022-10-03T06:45:50.066Z,10.10
2022-10-03T06:46:49.929Z,10.40
2022-10-03T06:47:50.002Z,11.80
2022-10-03T06:48:49.910Z,11.20
2022-10-03T06:49:49.899Z,9.20
2022-10-03T06:50:49.892Z,8.70
2022-10-03T06:51:49.891Z,10.70
2022-10-03T06:52:50.920Z,10.50
2022-10-03T06:53:49.877Z,7.90
2022-10-03T06:54:49.844Z,9.40
2022-10-03T06:55:52.456Z,11.90
2022-10-03T06:56:50.320Z,9.40
2022-10-03T06:57:49.832Z,10.30
2022-10-03T06:58:49.995Z,9.70
2022-10-03T06:59:49.796Z,10.70
2022-10-03T07:00:49.879Z,11.30
2022-10-03T07:01:49.832Z,9.70
2022-10-03T07:02:49.843Z,9.20
2022-10-03T07:03:50.460Z,8.80
2022-10-03T07:04:49.761Z,10.70
2022-10-03T07:05:49.729Z,10.20
2022-10-03T07:06:49.715Z,10.20
2022-10-03T07:07:49.706Z,11.20
2022-10-03T07:08:49.693Z,9.30
2022-10-03T07:09:49.681Z,10.00
2022-10-03T07:10:49.692Z,9.20
2022-10-03T07:11:56.466Z,12.30
2022-10-03T07:12:49.646Z,8.90
2022-10-03T07:13:49.663Z,10.70
2022-10-03T07:14:49.639Z,10.60
2022-10-03T07:16:20.953Z,10.00
2022-10-03T07:16:50.676Z,9.30
2022-10-03T07:17:49.592Z,9.50
2022-10-03T07:18:49.619Z,9.00
2022-10-03T07:19:49.586Z,10.80
2022-10-03T07:20:50.471Z,9.60
2022-10-03T07:21:49.550Z,8.90
2022-10-03T07:22:50.522Z,11.50
2022-10-03T07:23:49.531Z,10.10
2022-10-03T07:24:49.524Z,10.40
2022-10-03T07:25:49.504Z,9.60
2022-10-03T07:26:49.497Z,9.60
2022-10-03T07:27:52.500Z,9.10
2022-10-03T07:28:49.524Z,10.50
2022-10-03T07:29:49.492Z,9.10
2022-10-03T07:30:49.531Z,12.00
2022-10-03T07:31:51.973Z,8.70
2022-10-03T07:32:55.965Z,8.70
2022-10-03T07:33:49.493Z,8.80
2022-10-03T07:34:49.403Z,9.70
2022-10-03T07:35:49.403Z,8.60
2022-10-03T07:36:49.394Z,9.30
2022-10-03T07:37:49.380Z,10.80
2022-10-03T07:38:49.485Z,8.00
2022-10-03T07:39:49.361Z,10.60
2022-10-03T07:40:49.342Z,10.60
2022-10-03T07:41:49.971Z,10.20
2022-10-03T07:42:49.967Z,10.40
2022-10-03T07:43:49.499Z,10.10
2022-10-03T07:44:49.315Z,9.20
2022-10-03T07:45:52.141Z,9.20
2022-10-03T07:46:49.272Z,8.80
2022-10-03T07:47:49.964Z,9.70
2022-10-03T07:48:49.489Z,8.30
2022-10-03T07:49:49.243Z,8.40
2022-10-03T07:50:49.958Z,7.60
2022-10-03T07:51:49.228Z,8.60
2022-10-03T07:52:49.501Z,7.60
2022-10-03T07:53:49.216Z,8.90
2022-10-03T07:54:49.970Z,9.60
2022-10-03T07:55:49.185Z,7.90
2022-10-03T07:56:49.961Z,6.80
2022-10-03T07:57:49.165Z,8.20
2022-10-03T07:58:52.464Z,8.20
2022-10-03T07:59:51.982Z,8.40
2022-10-03T08:00:51.976Z,7.60
2022-10-03T08:01:49.992Z,8.40
2022-10-03T08:02:49.591Z,8.00
2022-10-03T08:03:49.190Z,7.50
2022-10-03T08:04:49.978Z,9.30
2022-10-03T08:05:49.504Z,7.70
2022-10-03T08:06:49.970Z,8.70
2022-10-03T08:07:49.497Z,9.60
2022-10-03T08:08:49.031Z,7.40
2022-10-03T08:09:55.983Z,9.20
2022-10-03T08:11:03.996Z,6.60
2022-10-03T08:11:49.009Z,8.10
2022-10-03T08:12:49.573Z,8.00
2022-10-03T08:13:49.970Z,8.60
2022-10-03T08:14:49.017Z,7.00
2022-10-03T08:15:49.069Z,6.30
2022-10-03T08:16:48.978Z,8.50
2022-10-03T08:17:51.481Z,7.20
2022-10-03T08:18:49.011Z,8.80
2022-10-03T08:19:50.474Z,7.50
2022-10-03T08:20:51.469Z,8.70
2022-10-03T08:21:48.902Z,7.30
2022-10-03T08:22:48.882Z,9.10
2022-10-03T08:23:49.018Z,7.70
2022-10-03T08:24:51.478Z,7.20
2022-10-03T08:25:49.474Z,7.00
2022-10-03T08:26:48.837Z,6.20
2022-10-03T08:27:48.878Z,6.00
2022-10-03T08:28:48.817Z,9.90
2022-10-03T08:29:49.008Z,6.80
2022-10-03T08:30:48.897Z,9.20
2022-10-03T08:31:49.807Z,6.80
2022-10-03T08:32:49.469Z,6.00
2022-10-03T08:33:49.496Z,6.80
2022-10-03T08:34:49.468Z,7.70
2022-10-03T08:35:48.762Z,5.90
2022-10-03T08:36:49.472Z,7.30
2022-10-03T08:37:49.466Z,7.20
2022-10-03T08:38:48.710Z,6.30
2022-10-03T08:39:48.708Z,6.10
2022-10-03T08:40:49.991Z,7.00
2022-10-03T08:41:48.678Z,6.60
2022-10-03T08:42:51.467Z,7.20
2022-10-03T08:43:49.475Z,6.50
2022-10-03T08:44:48.658Z,7.00
2022-10-03T08:45:48.647Z,6.10
2022-10-03T08:46:49.488Z,7.80
2022-10-03T08:47:48.606Z,5.60
2022-10-03T08:48:49.466Z,6.70
2022-10-03T08:49:48.607Z,6.30
2022-10-03T08:50:51.463Z,5.10
2022-10-03T08:51:48.589Z,5.90
2022-10-03T08:52:48.552Z,5.40
2022-10-03T08:53:49.493Z,6.30
2022-10-03T08:54:49.577Z,5.20
2022-10-03T08:55:48.526Z,6.00
2022-10-03T08:56:48.511Z,6.70
2022-10-03T08:57:48.999Z,6.30
2022-10-03T08:58:49.473Z,7.90
2022-10-03T08:59:48.476Z,8.10
2022-10-03T09:00:48.999Z,5.80
2022-10-03T09:01:49.092Z,5.70
2022-10-03T09:03:02.146Z,6.40
2022-10-03T09:03:49.501Z,5.60
2022-10-03T09:04:48.429Z,6.30
2022-10-03T09:05:48.428Z,5.10
2022-10-03T09:07:15.362Z,7.60
2022-10-03T09:07:49.973Z,5.90
2022-10-03T09:08:48.380Z,5.00
2022-10-03T09:09:48.506Z,7.30
2022-10-03T09:10:48.359Z,4.70
2022-10-03T09:11:51.487Z,5.80
2022-10-03T09:12:48.338Z,7.50
2022-10-03T09:13:50.979Z,5.40
2022-10-03T09:14:48.333Z,4.10
2022-10-03T09:15:49.027Z,5.90
2022-10-03T09:16:50.974Z,5.70
2022-10-03T09:17:48.305Z,5.40
2022-10-03T09:18:48.980Z,4.20
2022-10-03T09:19:48.504Z,5.70
2022-10-03T09:20:48.250Z,5.00
2022-10-03T09:21:48.985Z,4.90
2022-10-03T09:22:48.222Z,6.60
2022-10-03T09:23:48.215Z,4.90
2022-10-03T09:24:48.222Z,4.50
2022-10-03T09:25:48.967Z,6.30
2022-10-03T09:26:48.186Z,6.20
2022-10-03T09:27:48.266Z,5.00
2022-10-03T09:28:48.178Z,5.60
2022-10-03T09:29:48.152Z,4.30
2022-10-03T09:30:48.979Z,5.00
2022-10-03T09:31:49.036Z,4.20
2022-10-03T09:32:48.512Z,4.10
2022-10-03T09:33:48.103Z,4.70
2022-10-03T09:34:48.096Z,4.90
2022-10-03T09:35:48.991Z,6.10
2022-10-03T09:36:48.092Z,6.60
2022-10-03T09:37:48.079Z,4.20
2022-10-03T09:38:54.976Z,4.10
2022-10-03T09:39:50.974Z,5.10
2022-10-03T09:40:53.340Z,4.70
2022-10-03T09:41:48.056Z,3.30
2022-10-03T09:42:51.039Z,4.90
2022-10-03T09:43:48.010Z,4.60
2022-10-03T09:44:47.993Z,4.20
2022-10-03T09:45:47.998Z,5.40
2022-10-03T09:46:48.636Z,4.20
2022-10-03T09:47:47.955Z,8.40
2022-10-03T09:48:50.481Z,5.30
2022-10-03T09:49:47.926Z,4.60
2022-10-03T09:50:47.938Z,5.10
2022-10-03T09:51:47.937Z,7.10
2022-10-03T09:52:47.908Z,5.10
2022-10-03T09:53:48.042Z,3.00
2022-10-03T09:54:50.477Z,3.80
2022-10-03T09:55:47.863Z,3.40
2022-10-03T09:56:47.863Z,3.80
2022-10-03T09:57:48.477Z,7.30
2022-10-03T09:58:50.489Z,5.50
2022-10-03T09:59:48.009Z,5.10
2022-10-03T10:00:47.896Z,3.60
2022-10-03T10:01:54.508Z,3.80
2022-10-03T10:02:48.478Z,4.20
2022-10-03T10:03:48.053Z,4.60
2022-10-03T10:04:55.451Z,3.60
2022-10-03T10:06:09.758Z,5.00
2022-10-03T10:06:54.488Z,5.00
2022-10-03T10:07:48.472Z,5.10
2022-10-03T10:08:47.753Z,4.40
2022-10-03T10:09:48.496Z,6.60
2022-10-03T10:10:47.707Z,3.80
2022-10-03T10:11:47.688Z,4.10
2022-10-03T10:12:47.683Z,3.30
2022-10-03T10:14:09.948Z,3.20
2022-10-03T10:14:49.478Z,4.00
2022-10-03T10:15:47.675Z,3.90
2022-10-03T10:16:51.027Z,4.30
2022-10-03T10:17:47.630Z,4.00
2022-10-03T10:18:50.499Z,4.60
2022-10-03T10:19:47.631Z,5.10
2022-10-03T10:20:47.600Z,4.50
2022-10-03T10:21:50.473Z,4.70
2022-10-03T10:23:08.580Z,3.50
2022-10-03T10:23:47.561Z,4.00
2022-10-03T10:24:47.547Z,3.40
2022-10-03T10:25:48.027Z,3.30
2022-10-03T10:26:47.530Z,4.90
2022-10-03T10:27:48.514Z,6.40
2022-10-03T10:28:47.509Z,3.60
2022-10-03T10:30:02.475Z,3.50
2022-10-03T10:30:47.984Z,4.00
2022-10-03T10:31:47.528Z,2.80
2022-10-03T10:32:47.985Z,3.80
2022-10-03T10:33:47.991Z,3.70
2022-10-03T10:34:49.980Z,4.20
2022-10-03T10:35:47.427Z,3.80
2022-10-03T10:36:50.000Z,5.50
2022-10-03T10:37:47.427Z,2.30
2022-10-03T10:38:48.442Z,4.50
2022-10-03T10:39:49.982Z,4.20
2022-10-03T10:40:47.377Z,3.30
2022-10-03T10:41:47.999Z,3.60
2022-10-03T10:42:47.349Z,4.60
2022-10-03T10:43:47.513Z,4.80
2022-10-03T10:44:47.330Z,3.60
2022-10-03T10:45:49.982Z,4.40
2022-10-03T10:46:47.343Z,2.50
2022-10-03T10:47:47.986Z,3.60
2022-10-03T10:48:47.289Z,4.20
2022-10-03T10:49:47.514Z,2.10
2022-10-03T10:50:47.259Z,2.40
2022-10-03T10:51:47.252Z,3.20
2022-10-03T10:52:47.261Z,4.00
2022-10-03T10:53:47.979Z,4.00
2022-10-03T10:54:47.231Z,3.10
2022-10-03T10:55:49.992Z,3.60
2022-10-03T10:56:47.220Z,2.80
2022-10-03T10:57:47.220Z,2.90
2022-10-03T10:58:47.177Z,2.00
2022-10-03T10:59:47.171Z,3.30
2022-10-03T11:00:47.190Z,3.40
2022-10-03T11:01:49.997Z,3.60
2022-10-03T11:02:47.155Z,4.90
2022-10-03T11:03:47.174Z,3.30
2022-10-03T11:04:47.208Z,3.30
2022-10-03T11:05:47.096Z,3.90
2022-10-03T11:06:47.094Z,2.60
2022-10-03T11:07:48.738Z,3.20
2022-10-03T11:08:47.078Z,3.20
2022-10-03T11:09:47.055Z,3.10
2022-10-03T11:10:47.046Z,3.60
2022-10-03T11:11:47.025Z,3.70
2022-10-03T11:12:47.033Z,2.20
2022-10-03T11:13:47.047Z,3.70
2022-10-03T11:14:48.038Z,3.70
2022-10-03T11:15:46.993Z,3.20
2022-10-03T11:16:47.036Z,4.40
2022-10-03T11:17:46.997Z,2.30
2022-10-03T11:18:46.966Z,3.20
2022-10-03T11:19:46.975Z,2.50
2022-10-03T11:20:49.485Z,2.50
2022-10-03T11:21:46.933Z,3.00
2022-10-03T11:22:47.489Z,3.70
2022-10-03T11:23:46.905Z,2.00
2022-10-03T11:24:46.921Z,2.40
2022-10-03T11:25:47.013Z,2.30
2022-10-03T11:26:46.923Z,2.70
2022-10-03T11:27:46.855Z,2.50
2022-10-03T11:28:47.573Z,2.20
2022-10-03T11:29:46.856Z,2.40
2022-10-03T11:30:46.822Z,2.00
2022-10-03T11:31:46.861Z,2.30
2022-10-03T11:32:46.830Z,2.50
2022-10-03T11:33:46.790Z,4.20
2022-10-03T11:34:46.790Z,2.90
2022-10-03T11:35:49.491Z,3.00
2022-10-03T11:36:46.767Z,3.80
2022-10-03T11:37:46.772Z,5.30
2022-10-03T11:38:46.746Z,2.00
2022-10-03T11:39:47.495Z,1.30
2022-10-03T11:40:46.720Z,2.70
2022-10-03T11:41:47.487Z,3.90
2022-10-03T11:42:46.720Z,2.30
2022-10-03T11:43:46.683Z,2.40
2022-10-03T11:44:46.676Z,2.90
2022-10-03T11:45:46.796Z,1.40
2022-10-03T11:46:47.494Z,3.10
2022-10-03T11:47:46.642Z,1.70
2022-10-03T11:48:48.522Z,2.40
2022-10-03T11:49:46.610Z,2.00
2022-10-03T11:50:47.505Z,2.10
2022-10-03T11:51:51.505Z,2.00
2022-10-03T11:52:47.579Z,1.90
2022-10-03T11:53:47.499Z,2.40
2022-10-03T11:54:46.568Z,3.10
2022-10-03T11:55:46.553Z,2.70
2022-10-03T11:56:46.565Z,1.70
2022-10-03T11:57:47.492Z,2.60
2022-10-03T11:59:01.501Z,2.30
2022-10-03T11:59:46.499Z,2.00
2022-10-03T12:00:46.499Z,2.90
2022-10-03T12:01:51.487Z,2.40
2022-10-03T12:02:46.570Z,2.50
2022-10-03T12:03:53.001Z,2.50
2022-10-03T12:04:46.447Z,2.90
2022-10-03T12:05:47.494Z,2.00
2022-10-03T12:06:46.438Z,2.30
2022-10-03T12:07:46.415Z,1.70
2022-10-03T12:08:46.533Z,1.80
2022-10-03T12:09:46.427Z,2.50
2022-10-03T12:10:48.419Z,2.50
2022-10-03T12:11:46.397Z,2.70
2022-10-03T12:12:46.363Z,2.30
2022-10-03T12:13:46.998Z,1.40
2022-10-03T12:14:46.344Z,2.10
2022-10-03T12:15:46.328Z,2.90
2022-10-03T12:16:46.377Z,2.00
2022-10-03T12:17:46.552Z,2.60
2022-10-03T12:18:46.304Z,2.70
2022-10-03T12:19:46.320Z,2.60
2022-10-03T12:20:47.006Z,4.50
2022-10-03T12:21:46.257Z,1.40
2022-10-03T12:22:49.003Z,1.40
2022-10-03T12:23:46.244Z,2.30
2022-10-03T12:24:47.046Z,2.00
2022-10-03T12:25:46.239Z,1.80
2022-10-03T12:26:46.216Z,2.30
2022-10-03T12:27:46.992Z,1.90
2022-10-03T12:28:46.999Z,1.30
2022-10-03T12:29:46.183Z,2.10
2022-10-03T12:30:46.189Z,2.00
2022-10-03T12:31:49.053Z,1.60
2022-10-03T12:32:46.148Z,2.30
2022-10-03T12:33:47.046Z,1.90
2022-10-03T12:34:46.119Z,2.20
2022-10-03T12:35:46.135Z,2.40
2022-10-03T12:36:46.995Z,1.40
2022-10-03T12:37:46.096Z,1.90
2022-10-03T12:38:53.010Z,2.10
2022-10-03T12:39:46.075Z,1.60
2022-10-03T12:40:46.079Z,1.50
2022-10-03T12:41:47.006Z,1.40
2022-10-03T12:42:46.065Z,1.90
2022-10-03T12:43:46.034Z,1.50
2022-10-03T12:44:46.030Z,1.90
2022-10-03T12:45:47.058Z,1.10
2022-10-03T12:46:45.995Z,2.40
2022-10-03T12:47:56.664Z,2.70
2022-10-03T12:48:47.034Z,1.90
2022-10-03T12:49:45.990Z,1.80
2022-10-03T12:50:48.529Z,1.10
2022-10-03T12:51:45.948Z,2.10
2022-10-03T12:52:45.942Z,2.00
2022-10-03T12:53:46.041Z,2.50
2022-10-03T12:54:45.908Z,2.10
2022-10-03T12:55:46.038Z,2.60
2022-10-03T12:56:45.891Z,1.50
2022-10-03T12:57:45.886Z,1.60
2022-10-03T12:58:45.871Z,1.40
2022-10-03T12:59:48.580Z,3.10
2022-10-03T13:00:46.611Z,1.60
2022-10-03T13:01:45.902Z,1.70
2022-10-03T13:02:45.870Z,1.80
2022-10-03T13:04:06.836Z,1.40
2022-10-03T13:04:46.507Z,1.90
2022-10-03T13:05:46.529Z,2.50
2022-10-03T13:07:03.289Z,2.50
2022-10-03T13:07:47.498Z,1.40
2022-10-03T13:08:45.779Z,1.40
2022-10-03T13:09:45.752Z,2.40
2022-10-03T13:10:45.744Z,3.30
2022-10-03T13:11:45.732Z,1.50
2022-10-03T13:12:45.720Z,1.60
2022-10-03T13:13:45.733Z,1.70
2022-10-03T13:14:45.700Z,2.10
2022-10-03T13:15:45.745Z,2.10
2022-10-03T13:16:45.672Z,2.70